createdAt,value
2018-03-30T00:01:24.386Z,99859.03
2018-03-30T00:03:52.883Z,99864.28
2018-03-30T00:06:21.342Z,99871.94
2018-03-30T00:08:49.877Z,99861.80
2018-03-30T00:11:23.878Z,99866.75
2018-03-30T00:13:52.370Z,99871.09
2018-03-30T00:16:20.904Z,99875.52
2018-03-30T00:18:49.398Z,99876.17
2018-03-30T00:21:17.889Z,99872.45
2018-03-30T00:23:46.382Z,99870.98
2018-03-30T00:26:14.837Z,99867.57
2018-03-30T00:28:43.352Z,99881.36
2018-03-30T00:31:11.836Z,99874.38
2018-03-30T00:33:40.325Z,99885.72
2018-03-30T00:36:08.818Z,99885.53
2018-03-30T00:38:37.318Z,99887.08
2018-03-30T00:41:05.822Z,99883.38
2018-03-30T00:43:34.299Z,99888.16
2018-03-30T00:46:02.790Z,99895.94
2018-03-30T00:48:31.302Z,99895.31
2018-03-30T00:50:59.790Z,99887.66
2018-03-30T00:53:39.927Z,99886.41
2018-03-30T00:56:08.375Z,99891.16
2018-03-30T00:58:36.880Z,99890.78
2018-03-30T01:01:05.338Z,99898.22
2018-03-30T01:03:33.830Z,99888.57
2018-03-30T01:06:02.334Z,99907.84
2018-03-30T01:08:30.814Z,99900.08
2018-03-30T01:10:59.380Z,99907.11
2018-03-30T01:13:27.861Z,99906.80
2018-03-30T01:15:56.373Z,99910.53
2018-03-30T01:18:24.880Z,99913.62
2018-03-30T01:20:53.386Z,99907.94
2018-03-30T01:23:22.259Z,99912.47
2018-03-30T01:25:50.810Z,99908.83
2018-03-30T01:28:19.282Z,99909.84
2018-03-30T01:30:47.779Z,99913.14
2018-03-30T01:33:16.234Z,99919.21
2018-03-30T01:35:44.734Z,99921.09
2018-03-30T01:38:13.231Z,99919.75
2018-03-30T01:40:41.706Z,99924.31
2018-03-30T01:43:10.214Z,99932.37
2018-03-30T01:45:38.714Z,99928.34
2018-03-30T01:48:07.174Z,99926.80
2018-03-30T01:50:35.692Z,99925.73
2018-03-30T01:53:04.153Z,99923.89
2018-03-30T01:55:32.642Z,99924.00
2018-03-30T01:58:01.138Z,99921.72
2018-03-30T02:00:29.630Z,99918.51
2018-03-30T02:02:58.140Z,99918.73
2018-03-30T02:05:26.681Z,99921.31
2018-03-30T02:07:55.154Z,99926.06
2018-03-30T02:10:23.665Z,99919.84
2018-03-30T02:12:52.169Z,99932.53
2018-03-30T02:15:20.629Z,99939.06
2018-03-30T02:17:49.131Z,99946.92
2018-03-30T02:20:17.590Z,99942.97
2018-03-30T02:22:46.078Z,99943.25
2018-03-30T02:25:14.570Z,99935.06
2018-03-30T02:27:43.058Z,99939.81
2018-03-30T02:30:11.523Z,99941.69
2018-03-30T02:32:40.034Z,99947.44
2018-03-30T02:35:08.499Z,99925.77
2018-03-30T02:37:36.985Z,99945.98
2018-03-30T02:40:05.523Z,99941.52
2018-03-30T02:42:33.997Z,99951.94
2018-03-30T02:45:02.517Z,99952.66
2018-03-30T02:47:30.984Z,99962.66
2018-03-30T02:49:59.470Z,99964.45
2018-03-30T02:52:27.974Z,99969.23
2018-03-30T02:54:56.462Z,99965.36
2018-03-30T02:57:24.935Z,99971.37
2018-03-30T02:59:53.442Z,99976.67
2018-03-30T03:02:21.898Z,99971.48
2018-03-30T03:04:50.404Z,99964.34
2018-03-30T03:07:18.874Z,99976.44
2018-03-30T03:09:47.341Z,99982.83
2018-03-30T03:12:15.847Z,99980.48
2018-03-30T03:14:44.342Z,99975.17
2018-03-30T03:17:12.821Z,99978.61
2018-03-30T03:19:41.322Z,99985.45
2018-03-30T03:22:09.822Z,99983.98
2018-03-30T03:24:38.331Z,99986.27
2018-03-30T03:27:06.822Z,99981.22
2018-03-30T03:29:35.327Z,99985.59
2018-03-30T03:32:03.814Z,99995.88
2018-03-30T03:34:32.293Z,99997.30
2018-03-30T03:37:00.838Z,100001.14
2018-03-30T03:39:29.302Z,100002.49
2018-03-30T03:41:57.782Z,99999.20
2018-03-30T03:44:26.304Z,100006.45
2018-03-30T03:46:54.836Z,100015.93
2018-03-30T03:49:23.342Z,100016.70
2018-03-30T03:51:51.816Z,100011.16
2018-03-30T03:54:20.314Z,99993.58
2018-03-30T03:56:48.830Z,100020.80
2018-03-30T03:59:17.304Z,100016.97
2018-03-30T04:01:45.825Z,100011.19
2018-03-30T04:04:14.286Z,100021.05
2018-03-30T04:06:42.757Z,100031.16
2018-03-30T04:09:11.276Z,100035.67
2018-03-30T04:11:39.787Z,100035.56
2018-03-30T04:14:08.255Z,100029.28
2018-03-30T04:16:36.862Z,100025.53
2018-03-30T04:19:05.344Z,100031.83
2018-03-30T04:21:33.870Z,100022.01
2018-03-30T04:24:02.358Z,100019.95
2018-03-30T04:26:30.831Z,100034.74
2018-03-30T04:28:59.334Z,100040.22
2018-03-30T04:31:27.799Z,100035.83
2018-03-30T04:33:56.302Z,100044.47
2018-03-30T04:36:24.765Z,100043.42
2018-03-30T04:38:53.271Z,100039.10
2018-03-30T04:41:21.786Z,100026.97
2018-03-30T04:43:50.264Z,100047.07
2018-03-30T04:46:18.786Z,100055.06
2018-03-30T04:48:47.331Z,100051.78
2018-03-30T04:51:15.802Z,100040.41
2018-03-30T04:53:44.310Z,100043.27
2018-03-30T04:56:12.793Z,100054.91
2018-03-30T04:58:41.344Z,100061.00
2018-03-30T05:01:09.822Z,100057.52
2018-03-30T05:03:38.286Z,100058.50
2018-03-30T05:06:06.804Z,100057.09
2018-03-30T05:08:35.336Z,100066.67
2018-03-30T05:11:03.921Z,100052.91
2018-03-30T05:13:32.389Z,100064.30
2018-03-30T05:16:00.890Z,100065.95
2018-03-30T05:18:29.409Z,100063.98
2018-03-30T05:20:57.954Z,100067.20
2018-03-30T05:23:26.513Z,100065.86
2018-03-30T05:25:54.995Z,100078.98
2018-03-30T05:28:24.122Z,100075.75
2018-03-30T05:30:52.634Z,100074.34
2018-03-30T05:33:21.183Z,100080.96
2018-03-30T05:35:49.690Z,100072.65
2018-03-30T05:38:21.038Z,100070.59
2018-03-30T05:40:49.509Z,100083.12
2018-03-30T05:43:18.018Z,100081.30
2018-03-30T05:45:46.543Z,100083.35
2018-03-30T05:48:15.114Z,100078.75
2018-03-30T05:50:43.640Z,100081.87
2018-03-30T05:53:12.136Z,100062.92
2018-03-30T05:55:40.709Z,100080.32
2018-03-30T05:58:09.240Z,100082.14
2018-03-30T06:00:37.773Z,100090.80
2018-03-30T06:03:06.338Z,100078.53
2018-03-30T06:05:34.850Z,100082.06
2018-03-30T06:08:03.543Z,100069.14
2018-03-30T06:10:32.002Z,100073.64
2018-03-30T06:13:00.488Z,100083.86
2018-03-30T06:15:29.147Z,100081.19
2018-03-30T06:17:57.642Z,100076.95
2018-03-30T06:20:26.246Z,100084.07
2018-03-30T06:22:54.721Z,100085.57
2018-03-30T06:25:23.235Z,100061.42
2018-03-30T06:27:51.816Z,100076.89
2018-03-30T06:30:20.337Z,100081.37
2018-03-30T06:32:48.834Z,100087.09
2018-03-30T06:35:17.345Z,100087.62
2018-03-30T06:37:45.829Z,100081.99
2018-03-30T06:40:14.357Z,100089.66
2018-03-30T06:42:42.866Z,100093.32
2018-03-30T06:45:11.367Z,100093.28
2018-03-30T06:47:39.848Z,100103.91
2018-03-30T06:50:08.359Z,100099.37
2018-03-30T06:52:36.879Z,100105.75
2018-03-30T06:55:05.366Z,100102.48
2018-03-30T06:57:33.945Z,100101.48
2018-03-30T07:00:02.456Z,100097.77
2018-03-30T07:02:30.926Z,100101.70
2018-03-30T07:04:59.428Z,100104.02
2018-03-30T07:07:31.107Z,100087.80
2018-03-30T07:09:59.608Z,100104.61
2018-03-30T07:12:28.190Z,100102.82
2018-03-30T07:14:56.720Z,100079.17
2018-03-30T07:17:25.213Z,100099.61
2018-03-30T07:19:53.729Z,100101.89
2018-03-30T07:22:22.284Z,100103.84
2018-03-30T07:24:50.889Z,100105.20
2018-03-30T07:27:19.393Z,100110.23
2018-03-30T07:29:47.936Z,100105.73
2018-03-30T07:32:16.413Z,100107.05
2018-03-30T07:34:44.941Z,100114.16
2018-03-30T07:37:13.457Z,100113.64
2018-03-30T07:39:41.963Z,100107.68
2018-03-30T07:42:10.481Z,100110.45
2018-03-30T07:44:39.776Z,100115.05
2018-03-30T07:47:08.648Z,100107.91
2018-03-30T07:49:37.186Z,100116.48
2018-03-30T07:52:05.658Z,100110.16
2018-03-30T07:54:34.162Z,100110.70
2018-03-30T07:57:02.650Z,100115.27
2018-03-30T07:59:31.198Z,100112.47
2018-03-30T08:01:59.779Z,100114.87
2018-03-30T08:04:28.298Z,100112.58
2018-03-30T08:06:56.852Z,100091.81
2018-03-30T08:09:25.339Z,100109.11
2018-03-30T08:11:53.877Z,100106.91
2018-03-30T08:14:22.393Z,100114.48
2018-03-30T08:16:50.908Z,100113.67
2018-03-30T08:19:19.423Z,100107.37
2018-03-30T08:21:47.950Z,100112.64
2018-03-30T08:24:16.422Z,100114.20
2018-03-30T08:26:44.937Z,100115.35
2018-03-30T08:29:13.423Z,100107.50
2018-03-30T08:31:41.941Z,100114.09
2018-03-30T08:34:10.504Z,100094.95
2018-03-30T08:36:39.032Z,100099.38
2018-03-30T08:39:07.558Z,100095.67
2018-03-30T08:41:36.041Z,100097.98
2018-03-30T08:44:04.557Z,100102.36
2018-03-30T08:46:33.034Z,100101.89
2018-03-30T08:49:01.545Z,100083.78
2018-03-30T08:51:30.036Z,100081.97
2018-03-30T08:53:58.550Z,100076.08
2018-03-30T08:56:27.055Z,100090.95
2018-03-30T08:58:55.542Z,100080.59
2018-03-30T09:01:24.072Z,100076.54
2018-03-30T09:03:52.547Z,100076.34
2018-03-30T09:06:21.062Z,100073.15
2018-03-30T09:08:49.577Z,100070.83
2018-03-30T09:11:18.090Z,100055.98
2018-03-30T09:13:46.608Z,100062.98
2018-03-30T09:16:15.145Z,100056.73
2018-03-30T09:18:44.561Z,100050.86
2018-03-30T09:21:13.070Z,100043.81
2018-03-30T09:23:41.583Z,100059.42
2018-03-30T09:26:10.058Z,100049.28
2018-03-30T09:28:38.579Z,100045.51
2018-03-30T09:31:07.140Z,100046.91
2018-03-30T09:33:35.654Z,100043.20
2018-03-30T09:36:04.162Z,100037.73
2018-03-30T09:38:32.674Z,100038.98
2018-03-30T09:41:01.190Z,100029.15
2018-03-30T09:43:29.702Z,100042.58
2018-03-30T09:45:58.174Z,100022.75
2018-03-30T09:48:26.689Z,100021.77
2018-03-30T09:50:55.171Z,100018.09
2018-03-30T09:53:23.634Z,100012.45
2018-03-30T09:55:52.150Z,100011.25
2018-03-30T09:58:20.706Z,100010.41
2018-03-30T10:00:50.018Z,100003.41
2018-03-30T10:03:18.544Z,99980.29
2018-03-30T10:05:47.062Z,100006.97
2018-03-30T10:08:15.574Z,100000.14
2018-03-30T10:10:44.171Z,99991.89
2018-03-30T10:13:12.670Z,99987.91
2018-03-30T10:15:41.178Z,99991.06
2018-03-30T10:18:09.691Z,99985.20
2018-03-30T10:20:38.196Z,99980.08
2018-03-30T10:23:06.662Z,99975.58
2018-03-30T10:25:35.178Z,99959.69
2018-03-30T10:28:03.648Z,99974.43
2018-03-30T10:30:32.132Z,99974.34
2018-03-30T10:33:00.594Z,99941.05
2018-03-30T10:35:29.054Z,99974.16
2018-03-30T10:37:57.557Z,99977.28
2018-03-30T10:40:26.050Z,99967.71
2018-03-30T10:42:54.558Z,99968.20
2018-03-30T10:45:23.022Z,99957.91
2018-03-30T10:47:51.526Z,99957.93
2018-03-30T10:50:20.027Z,99953.22
2018-03-30T10:52:48.538Z,99951.02
2018-03-30T10:55:17.006Z,99941.94
2018-03-30T10:57:45.480Z,99943.38
2018-03-30T11:00:13.990Z,99950.43
2018-03-30T11:02:42.461Z,99939.00
2018-03-30T11:05:10.978Z,99942.27
2018-03-30T11:07:39.490Z,99934.88
2018-03-30T11:10:07.991Z,99928.72
2018-03-30T11:12:36.515Z,99935.85
2018-03-30T11:15:04.986Z,99927.39
2018-03-30T11:17:33.450Z,99930.80
2018-03-30T11:20:01.975Z,99927.34
2018-03-30T11:22:30.437Z,99933.77
2018-03-30T11:24:58.907Z,99931.41
2018-03-30T11:27:27.411Z,99930.91
2018-03-30T11:29:55.927Z,99920.88
2018-03-30T11:32:24.487Z,99915.99
2018-03-30T11:34:52.946Z,99880.30
2018-03-30T11:37:21.410Z,99908.87
2018-03-30T11:39:49.914Z,99903.38
2018-03-30T11:42:18.413Z,99897.45
2018-03-30T11:44:47.032Z,99881.19
2018-03-30T11:47:15.554Z,99898.04
2018-03-30T11:49:44.054Z,99887.75
2018-03-30T11:52:12.554Z,99891.81
2018-03-30T11:54:41.061Z,99879.27
2018-03-30T11:57:09.523Z,99880.58
2018-03-30T11:59:38.035Z,99867.92
2018-03-30T12:02:06.506Z,99856.95
2018-03-30T12:04:35.017Z,99859.44
2018-03-30T12:07:03.513Z,99862.52
2018-03-30T12:09:32.018Z,99853.21
2018-03-30T12:12:00.478Z,99853.08
2018-03-30T12:14:28.987Z,99853.92
2018-03-30T12:16:57.529Z,99853.45
2018-03-30T12:19:26.021Z,99854.20
2018-03-30T12:21:54.527Z,99846.28
2018-03-30T12:24:23.051Z,99843.53
2018-03-30T12:26:51.540Z,99840.00
2018-03-30T12:29:20.038Z,99838.97
2018-03-30T12:31:48.503Z,99827.28
2018-03-30T12:34:17.028Z,99818.60
2018-03-30T12:36:45.530Z,99840.00
2018-03-30T12:39:14.054Z,99817.53
2018-03-30T12:41:42.522Z,99822.55
2018-03-30T12:44:11.026Z,99829.98
2018-03-30T12:46:39.498Z,99822.47
2018-03-30T12:49:08.002Z,99809.04
2018-03-30T12:51:36.470Z,99808.07
2018-03-30T12:54:05.002Z,99800.47
2018-03-30T12:56:33.521Z,99803.87
2018-03-30T12:59:02.030Z,99803.61
2018-03-30T13:01:30.558Z,99795.64
2018-03-30T13:03:59.091Z,99803.68
2018-03-30T13:06:27.586Z,99797.91
2018-03-30T13:08:56.086Z,99791.00
2018-03-30T13:11:24.610Z,99788.73
2018-03-30T13:13:53.088Z,99789.25
2018-03-30T13:16:21.608Z,99778.27
2018-03-30T13:18:50.103Z,99769.77
2018-03-30T13:21:18.664Z,99783.36
2018-03-30T13:23:47.195Z,99776.95
2018-03-30T13:26:15.709Z,99781.41
2018-03-30T13:28:44.174Z,99772.11
2018-03-30T13:31:12.688Z,99768.65
2018-03-30T13:33:41.202Z,99763.96
2018-03-30T13:36:09.687Z,99760.59
2018-03-30T13:38:38.173Z,99761.63
2018-03-30T13:41:06.692Z,99756.81
2018-03-30T13:43:35.198Z,99745.80
2018-03-30T13:46:03.704Z,99749.14
2018-03-30T13:48:32.210Z,99746.09
2018-03-30T13:54:17.683Z,99743.29
2018-03-30T13:56:46.221Z,99729.82
2018-03-30T13:59:18.597Z,99746.03
2018-03-30T14:04:49.510Z,99739.45
2018-03-30T14:10:27.793Z,99735.38
2018-03-30T14:12:58.238Z,99731.25
2018-03-30T14:15:29.535Z,99735.08
2018-03-30T14:21:11.715Z,99730.25
2018-03-30T14:23:41.088Z,99731.43
2018-03-30T14:26:23.314Z,99734.21
2018-03-30T14:29:02.729Z,99732.03
2018-03-30T14:31:36.790Z,99733.42
2018-03-30T14:34:06.345Z,99736.78
2018-03-30T14:39:40.219Z,99737.47
2018-03-30T14:42:11.544Z,99732.61
2018-03-30T14:44:41.018Z,99720.91
2018-03-30T14:47:09.556Z,99730.06
2018-03-30T14:49:42.374Z,99725.27
2018-03-30T14:52:15.557Z,99727.67
2018-03-30T14:54:46.472Z,99725.78
2018-03-30T14:57:22.498Z,99733.67
2018-03-30T14:59:53.516Z,99716.39
2018-03-30T15:02:36.875Z,99726.69
2018-03-30T15:05:21.950Z,99729.75
2018-03-30T15:07:52.314Z,99729.91
2018-03-30T15:10:34.194Z,99733.53
2018-03-30T15:13:10.368Z,99734.87
2018-03-30T15:15:57.304Z,99726.58
2018-03-30T15:18:30.590Z,99727.50
2018-03-30T15:21:12.594Z,99740.31
2018-03-30T15:23:44.827Z,99723.33
2018-03-30T15:26:24.771Z,99722.58
2018-03-30T15:29:03.184Z,99731.95
2018-03-30T15:31:38.207Z,99731.44
2018-03-30T15:37:15.706Z,99722.75
2018-03-30T15:39:46.034Z,99740.19
2018-03-30T15:42:15.422Z,99726.22
2018-03-30T15:44:44.010Z,99744.23
2018-03-30T15:47:14.114Z,99753.73
2018-03-30T15:49:42.651Z,99751.52
2018-03-30T15:52:21.113Z,99747.37
2018-03-30T15:54:49.653Z,99748.82
2018-03-30T15:57:18.159Z,99757.72
2018-03-30T15:59:47.478Z,99749.95
2018-03-30T16:02:15.982Z,99755.98
2018-03-30T16:04:44.502Z,99752.73
2018-03-30T16:07:13.038Z,99754.28
2018-03-30T16:09:46.943Z,99753.27
2018-03-30T16:12:17.161Z,99749.95
2018-03-30T16:14:45.718Z,99749.94
2018-03-30T16:17:14.242Z,99750.77
2018-03-30T16:19:42.230Z,99754.77
2018-03-30T16:22:10.146Z,99755.17
2018-03-30T16:24:38.058Z,99770.12
2018-03-30T16:27:06.072Z,99766.03
2018-03-30T16:29:34.055Z,99773.92
2018-03-30T16:32:02.074Z,99773.11
2018-03-30T16:34:30.050Z,99769.79
2018-03-30T16:36:58.002Z,99776.67
2018-03-30T16:39:25.651Z,99784.88
2018-03-30T16:41:53.333Z,99769.41
2018-03-30T16:44:20.977Z,99786.66
2018-03-30T16:46:48.614Z,99787.54
2018-03-30T16:49:16.286Z,99792.57
2018-03-30T16:51:43.954Z,99790.97
2018-03-30T16:54:11.594Z,99777.06
2018-03-30T16:56:39.271Z,99786.39
2018-03-30T16:59:06.946Z,99793.67
2018-03-30T17:01:34.599Z,99780.14
2018-03-30T17:04:02.302Z,99790.38
2018-03-30T17:06:29.938Z,99791.25
2018-03-30T17:08:57.611Z,99790.52
2018-03-30T17:11:25.307Z,99793.88
2018-03-30T17:13:52.947Z,99783.77
2018-03-30T17:16:20.614Z,99802.51
2018-03-30T17:18:48.247Z,99803.63
2018-03-30T17:21:15.913Z,99805.88
2018-03-30T17:23:43.645Z,99809.30
2018-03-30T17:26:11.272Z,99792.05
2018-03-30T17:28:38.956Z,99806.73
2018-03-30T17:31:06.591Z,99807.42
2018-03-30T17:33:34.338Z,99810.03
2018-03-30T17:36:01.978Z,99817.58
2018-03-30T17:38:29.610Z,99825.94
2018-03-30T17:40:57.287Z,99832.38
2018-03-30T17:43:24.927Z,99832.82
2018-03-30T17:45:52.597Z,99833.34
2018-03-30T17:48:20.234Z,99839.95
2018-03-30T17:50:47.915Z,99845.55
2018-03-30T17:53:15.581Z,99845.83
2018-03-30T17:55:43.276Z,99841.33
2018-03-30T17:58:10.914Z,99845.44
2018-03-30T18:00:38.550Z,99851.99
2018-03-30T18:03:06.236Z,99854.85
2018-03-30T18:05:33.876Z,99854.98
2018-03-30T18:08:01.544Z,99839.10
2018-03-30T18:10:29.178Z,99864.67
2018-03-30T18:12:56.854Z,99869.48
2018-03-30T18:15:24.494Z,99857.79
2018-03-30T18:17:52.130Z,99858.89
2018-03-30T18:20:19.812Z,99869.06
2018-03-30T18:22:47.482Z,99873.17
2018-03-30T18:25:15.169Z,99881.92
2018-03-30T18:27:42.804Z,99877.78
2018-03-30T18:30:10.479Z,99888.01
2018-03-30T18:32:38.124Z,99881.58
2018-03-30T18:35:05.798Z,99880.76
2018-03-30T18:37:33.479Z,99878.39
2018-03-30T18:40:01.150Z,99884.00
2018-03-30T18:42:29.790Z,99883.19
2018-03-30T18:44:57.474Z,99888.14
2018-03-30T18:47:25.106Z,99887.02
2018-03-30T18:49:52.773Z,99896.11
2018-03-30T18:52:20.450Z,99893.38
2018-03-30T18:54:48.086Z,99900.03
2018-03-30T18:57:15.722Z,99904.77
2018-03-30T18:59:43.390Z,99907.06
2018-03-30T19:02:11.030Z,99908.94
2018-03-30T19:04:38.702Z,99901.87
2018-03-30T19:07:06.334Z,99918.21
2018-03-30T19:09:33.979Z,99926.75
2018-03-30T19:12:01.661Z,99923.97
2018-03-30T19:14:29.306Z,99925.47
2018-03-30T19:16:56.994Z,99928.30
2018-03-30T19:19:24.630Z,99930.98
2018-03-30T19:21:52.338Z,99936.42
2018-03-30T19:24:19.970Z,99933.67
2018-03-30T19:26:47.649Z,99931.44
2018-03-30T19:29:15.285Z,99935.33
2018-03-30T19:31:42.954Z,99943.18
2018-03-30T19:34:10.642Z,99936.36
2018-03-30T19:36:38.278Z,99937.94
2018-03-30T19:39:05.914Z,99938.48
2018-03-30T19:41:33.582Z,99938.86
2018-03-30T19:44:01.257Z,99920.44
2018-03-30T19:46:28.915Z,99938.95
2018-03-30T19:48:56.588Z,99945.16
2018-03-30T19:51:24.234Z,99949.89
2018-03-30T19:53:51.918Z,99947.73
2018-03-30T19:56:19.564Z,99952.40
2018-03-30T19:58:47.248Z,99954.47
2018-03-30T20:01:14.949Z,99943.52
2018-03-30T20:03:42.590Z,99944.11
2018-03-30T20:06:10.218Z,99943.78
2018-03-30T20:08:37.887Z,99945.36
2018-03-30T20:11:05.556Z,99944.94
2018-03-30T20:13:33.198Z,99950.01
2018-03-30T20:16:00.962Z,99949.51
2018-03-30T20:18:28.594Z,99943.55
2018-03-30T20:20:56.235Z,99943.70
2018-03-30T20:23:23.902Z,99940.37
2018-03-30T20:25:51.532Z,99946.57
2018-03-30T20:28:19.198Z,99952.19
2018-03-30T20:30:46.833Z,99961.48
2018-03-30T20:33:14.503Z,99968.66
2018-03-30T20:35:42.138Z,99960.44
2018-03-30T20:38:09.828Z,99949.55
2018-03-30T20:40:37.502Z,99949.48
2018-03-30T20:43:05.188Z,99963.25
2018-03-30T20:45:32.862Z,99966.22
2018-03-30T20:48:00.503Z,99969.58
2018-03-30T20:50:28.174Z,99964.52
2018-03-30T20:52:55.874Z,99968.31
2018-03-30T20:55:23.541Z,99979.41
2018-03-30T20:57:51.174Z,99971.91
2018-03-30T21:00:18.861Z,99959.47
2018-03-30T21:02:46.493Z,99964.91
2018-03-30T21:05:14.121Z,99965.11
2018-03-30T21:07:41.794Z,99958.77
2018-03-30T21:10:09.474Z,99955.67
2018-03-30T21:12:37.113Z,99955.73
2018-03-30T21:15:04.749Z,99952.77
2018-03-30T21:17:32.427Z,99954.52
2018-03-30T21:20:00.067Z,99957.11
2018-03-30T21:22:27.744Z,99974.11
2018-03-30T21:24:55.422Z,99969.86
2018-03-30T21:27:23.066Z,99977.02
2018-03-30T21:29:50.746Z,99971.37
2018-03-30T21:32:18.406Z,99969.20
2018-03-30T21:34:46.038Z,99966.05
2018-03-30T21:37:13.724Z,99965.88
2018-03-30T21:39:41.409Z,99957.15
2018-03-30T21:42:09.043Z,99957.29
2018-03-30T21:44:36.728Z,99961.55
2018-03-30T21:47:04.426Z,99953.01
2018-03-30T21:49:32.102Z,99968.57
2018-03-30T21:51:59.774Z,99971.19
2018-03-30T21:54:27.464Z,99975.80
2018-03-30T21:56:55.099Z,99972.19
2018-03-30T21:59:22.766Z,99967.35
2018-03-30T22:01:50.413Z,99974.33
2018-03-30T22:04:18.090Z,99975.86
2018-03-30T22:06:45.761Z,99980.71
2018-03-30T22:09:13.405Z,99983.61
2018-03-30T22:11:41.089Z,99974.05
2018-03-30T22:14:08.726Z,99977.45
2018-03-30T22:16:36.413Z,99975.05
2018-03-30T22:19:04.081Z,99978.53
2018-03-30T22:21:31.714Z,99971.69
2018-03-30T22:23:59.383Z,99972.46
2018-03-30T22:26:27.068Z,99970.39
2018-03-30T22:28:54.718Z,99975.95
2018-03-30T22:31:22.387Z,99967.31
2018-03-30T22:33:50.062Z,99971.11
2018-03-30T22:36:17.729Z,99971.92
2018-03-30T22:38:45.362Z,99970.92
2018-03-30T22:41:13.029Z,99972.52
2018-03-30T22:43:40.684Z,99976.67
2018-03-30T22:46:08.376Z,99974.36
2018-03-30T22:48:36.014Z,99968.52
2018-03-30T22:51:03.650Z,99960.52
2018-03-30T22:53:31.327Z,99957.53
2018-03-30T22:55:58.997Z,99956.63
2018-03-30T22:58:26.677Z,99959.07
2018-03-30T23:00:54.310Z,99964.45
2018-03-30T23:03:21.987Z,99967.44
2018-03-30T23:05:49.987Z,99954.45
2018-03-30T23:08:17.927Z,99968.39
2018-03-30T23:10:45.870Z,99970.56
2018-03-30T23:13:13.858Z,99978.20
2018-03-30T23:15:41.826Z,99977.44
2018-03-30T23:18:09.813Z,99974.13
2018-03-30T23:20:37.786Z,99965.98
2018-03-30T23:23:05.769Z,99969.34
2018-03-30T23:25:33.757Z,99962.91
2018-03-30T23:28:01.708Z,99950.05
2018-03-30T23:30:29.714Z,99964.27
2018-03-30T23:32:57.651Z,99970.59
2018-03-30T23:35:25.660Z,99973.95
2018-03-30T23:37:53.598Z,99973.48
2018-03-30T23:40:21.522Z,99973.17
2018-03-30T23:42:49.531Z,99977.15
2018-03-30T23:45:17.494Z,99982.39
2018-03-30T23:47:45.476Z,99975.30
2018-03-30T23:50:13.430Z,99966.47
2018-03-30T23:52:41.407Z,99963.34
2018-03-30T23:55:09.381Z,99955.96
2018-03-30T23:57:37.341Z,99962.80
